createdAt,value
2018-10-11T04:00:29.970Z,28.10
2018-10-11T04:02:58.192Z,27.75
2018-10-11T04:05:26.255Z,27.07
2018-10-11T04:07:54.441Z,26.67
2018-10-11T04:10:22.511Z,28.10
2018-10-11T04:12:50.583Z,27.83
2018-10-11T04:15:18.655Z,27.83
2018-10-11T04:17:46.728Z,26.97
2018-10-11T04:20:15.207Z,26.20
2018-10-11T04:22:43.288Z,27.97
2018-10-11T04:25:11.387Z,26.68
2018-10-11T04:27:39.507Z,26.87
2018-10-11T04:30:09.376Z,27.25
2018-10-11T04:32:37.362Z,27.70
2018-10-11T04:35:05.520Z,28.10
2018-10-11T04:37:33.644Z,29.07
2018-10-11T04:40:01.738Z,29.23
2018-10-11T04:42:29.887Z,29.13
2018-10-11T04:44:57.933Z,29.70
2018-10-11T04:47:26.040Z,29.70
2018-10-11T04:49:54.252Z,30.57
2018-10-11T04:52:24.776Z,29.37
2018-10-11T04:54:52.859Z,28.83
2018-10-11T04:57:21.072Z,29.03
2018-10-11T04:59:49.243Z,30.82
2018-10-11T05:02:17.247Z,31.90
2018-10-11T05:04:45.378Z,31.60
2018-10-11T05:07:13.455Z,30.80
2018-10-11T05:09:41.557Z,31.80
2018-10-11T05:12:09.646Z,30.57
2018-10-11T05:14:39.504Z,30.62
2018-10-11T05:17:07.626Z,31.77
2018-10-11T05:19:37.599Z,30.83
2018-10-11T05:22:05.715Z,30.20
2018-10-11T05:24:33.858Z,32.47
2018-10-11T05:27:01.935Z,30.20
2018-10-11T05:29:30.035Z,32.17
2018-10-11T05:31:58.113Z,34.10
2018-10-11T05:34:26.215Z,35.43
2018-10-11T05:36:54.638Z,35.73
2018-10-11T05:39:22.764Z,36.77
2018-10-11T05:41:50.916Z,35.63
2018-10-11T05:44:31.447Z,37.57
2018-10-11T05:47:01.120Z,36.05
2018-10-11T05:49:29.192Z,38.13
2018-10-11T05:51:57.264Z,35.80
2018-10-11T05:54:25.879Z,36.60
2018-10-11T05:56:54.635Z,35.60
2018-10-11T05:59:22.767Z,33.80
2018-10-11T06:01:50.827Z,36.30
2018-10-11T06:04:19.688Z,36.93
2018-10-11T06:06:48.626Z,35.03
2018-10-11T06:09:16.784Z,32.97
2018-10-11T06:11:46.020Z,31.33
2018-10-11T06:14:14.691Z,28.77
2018-10-11T06:16:42.949Z,29.40
2018-10-11T06:19:12.358Z,39.90
2018-10-11T06:21:40.437Z,24.47
2018-10-11T06:24:08.528Z,23.73
2018-10-11T06:26:36.616Z,22.32
2018-10-11T06:29:04.767Z,21.67
2018-10-11T06:31:33.203Z,21.83
2018-10-11T06:34:01.274Z,21.63
2018-10-11T06:36:29.460Z,23.07
2018-10-11T06:38:58.546Z,23.17
2018-10-11T06:41:26.648Z,23.27
2018-10-11T06:43:54.815Z,23.27
2018-10-11T06:46:22.980Z,25.00
2018-10-11T06:48:51.056Z,25.27
2018-10-11T06:51:19.143Z,23.80
2018-10-11T06:53:50.479Z,24.47
2018-10-11T06:56:18.663Z,25.30
2018-10-11T06:58:46.795Z,24.83
2018-10-11T07:01:15.641Z,25.00
2018-10-11T07:03:43.800Z,24.07
2018-10-11T07:06:12.035Z,25.87
2018-10-11T07:08:40.144Z,25.08
2018-10-11T07:11:08.684Z,24.12
2018-10-11T07:13:36.855Z,23.60
2018-10-11T07:16:06.345Z,22.70
2018-10-11T07:18:35.003Z,23.40
2018-10-11T07:21:03.769Z,20.60
2018-10-11T07:23:31.857Z,20.17
2018-10-11T07:25:59.975Z,22.10
2018-10-11T07:28:28.016Z,21.17
2018-10-11T07:30:56.124Z,20.50
2018-10-11T07:33:24.539Z,20.40
2018-10-11T07:35:53.412Z,19.67
2018-10-11T07:38:23.908Z,18.48
2018-10-11T07:40:52.022Z,18.70
2018-10-11T07:43:20.159Z,19.37
2018-10-11T07:45:48.241Z,20.00
2018-10-11T07:48:16.560Z,19.00
2018-10-11T07:50:44.815Z,18.60
2018-10-11T07:53:12.941Z,17.30
2018-10-11T07:55:41.115Z,18.30
2018-10-11T07:58:09.133Z,18.50
2018-10-11T08:00:37.238Z,17.07
2018-10-11T08:03:05.543Z,17.63
2018-10-11T08:05:33.976Z,17.50
2018-10-11T08:08:02.125Z,17.83
2018-10-11T08:10:30.274Z,17.07
2018-10-11T08:12:58.313Z,17.48
2018-10-11T08:15:26.421Z,18.30
2018-10-11T08:17:56.491Z,17.37
2018-10-11T08:20:25.309Z,18.30
2018-10-11T08:22:54.934Z,17.23
2018-10-11T08:25:23.380Z,17.47
2018-10-11T08:27:51.168Z,17.53
2018-10-11T08:30:19.286Z,17.33
2018-10-11T08:32:47.470Z,18.37
2018-10-11T08:35:16.152Z,20.17
2018-10-11T08:37:45.555Z,19.10
2018-10-11T08:40:25.671Z,18.00
2018-10-11T08:42:54.316Z,18.80
2018-10-11T08:45:24.667Z,18.57
2018-10-11T08:47:53.039Z,20.23
2018-10-11T08:50:21.190Z,19.33
2018-10-11T08:52:52.307Z,19.77
2018-10-11T08:55:21.421Z,20.07
2018-10-11T08:57:49.546Z,19.90
2018-10-11T09:00:17.625Z,19.83
2018-10-11T09:02:45.832Z,21.20
2018-10-11T09:05:14.427Z,20.77
2018-10-11T09:07:42.401Z,20.88
2018-10-11T09:10:10.484Z,20.50
2018-10-11T09:12:38.739Z,21.40
2018-10-11T09:15:07.715Z,19.10
2018-10-11T09:17:36.268Z,20.17
2018-10-11T09:20:04.747Z,20.63
2018-10-11T09:22:33.417Z,19.17
2018-10-11T09:25:01.512Z,20.50
2018-10-11T09:27:29.571Z,20.63
2018-10-11T09:29:57.713Z,20.05
2018-10-11T09:32:25.904Z,20.37
2018-10-11T09:34:54.279Z,21.40
2018-10-11T09:37:22.368Z,23.03
2018-10-11T09:39:51.415Z,20.73
2018-10-11T09:42:19.499Z,20.33
2018-10-11T09:44:48.016Z,21.53
2018-10-11T09:47:16.239Z,20.32
2018-10-11T09:49:44.777Z,20.77
2018-10-11T09:52:13.784Z,21.40
2018-10-11T09:54:41.895Z,21.17
2018-10-11T09:57:18.334Z,21.05
2018-10-11T09:59:47.691Z,21.13
2018-10-11T10:02:16.580Z,22.40
2018-10-11T10:04:47.948Z,21.07
2018-10-11T10:07:19.219Z,20.77
2018-10-11T10:09:47.738Z,21.43
2018-10-11T10:12:17.391Z,22.37
2018-10-11T10:14:48.215Z,21.67
2018-10-11T10:17:18.348Z,21.40
2018-10-11T10:19:47.236Z,21.20
2018-10-11T10:22:19.401Z,21.33
2018-10-11T10:24:47.492Z,21.10
2018-10-11T10:27:17.085Z,19.90
2018-10-11T10:29:59.692Z,21.23
2018-10-11T10:32:29.473Z,19.73
2018-10-11T10:34:57.561Z,20.47
2018-10-11T10:37:25.688Z,20.57
2018-10-11T10:39:54.038Z,22.30
2018-10-11T10:42:23.228Z,19.87
2018-10-11T10:44:51.287Z,19.15
2018-10-11T10:47:19.372Z,20.00
2018-10-11T10:49:47.493Z,21.02
2018-10-11T10:52:15.598Z,19.90
2018-10-11T10:54:44.151Z,19.97
2018-10-11T10:57:12.253Z,19.07
2018-10-11T10:59:40.322Z,17.93
2018-10-11T11:02:08.406Z,19.13
2018-10-11T11:04:36.491Z,19.27
2018-10-11T11:07:04.858Z,18.15
2018-10-11T11:09:32.938Z,20.57
2018-10-11T11:12:01.018Z,19.62
2018-10-11T11:14:29.098Z,19.37
2018-10-11T11:16:59.213Z,20.33
2018-10-11T11:19:27.299Z,19.80
2018-10-11T11:21:55.459Z,19.93
2018-10-11T11:24:23.659Z,19.07
2018-10-11T11:26:51.751Z,19.73
2018-10-11T11:29:19.856Z,18.03
2018-10-11T11:31:47.928Z,18.97
2018-10-11T11:34:16.091Z,19.37
2018-10-11T11:36:44.225Z,19.83
2018-10-11T11:39:13.364Z,19.10
2018-10-11T11:41:41.480Z,18.43
2018-10-11T11:44:09.568Z,19.70
2018-10-11T11:46:42.295Z,18.97
2018-10-11T11:49:10.377Z,18.33
2018-10-11T11:51:38.511Z,19.92
2018-10-11T11:54:11.956Z,19.17
2018-10-11T11:56:40.039Z,20.85
2018-10-11T11:59:08.141Z,18.80
2018-10-11T12:01:36.275Z,19.30
2018-10-11T12:04:04.608Z,18.67
2018-10-11T12:06:33.405Z,19.00
2018-10-11T12:09:02.652Z,19.67
2018-10-11T12:11:30.736Z,18.83
2018-10-11T12:13:58.819Z,20.20
2018-10-11T12:16:26.958Z,18.13
2018-10-11T12:18:55.131Z,20.20
2018-10-11T12:21:23.352Z,18.15
2018-10-11T12:23:51.627Z,18.27
2018-10-11T12:26:22.122Z,19.13
2018-10-11T12:28:50.260Z,18.67
2018-10-11T12:31:18.336Z,18.20
2018-10-11T12:33:46.523Z,19.00
2018-10-11T12:36:15.147Z,17.80
2018-10-11T12:38:43.250Z,18.30
2018-10-11T12:41:11.323Z,16.70
2018-10-11T12:43:39.879Z,16.70
2018-10-11T12:46:08.057Z,17.82
2018-10-11T12:48:36.229Z,18.37
2018-10-11T12:51:04.868Z,17.80
2018-10-11T12:53:33.524Z,18.40
2018-10-11T12:56:02.109Z,18.37
2018-10-11T12:58:30.393Z,17.53
2018-10-11T13:00:59.635Z,18.63
2018-10-11T13:03:27.749Z,18.70
2018-10-11T13:05:55.805Z,17.60
2018-10-11T13:08:24.611Z,18.77
2018-10-11T13:10:52.772Z,16.87
2018-10-11T13:13:26.649Z,18.30
2018-10-11T13:15:58.694Z,16.57
2018-10-11T13:18:24.538Z,17.75
2018-10-11T13:20:52.699Z,16.90
2018-10-11T13:23:22.706Z,18.23
2018-10-11T13:25:50.796Z,17.43
2018-10-11T13:28:18.892Z,17.07
2018-10-11T13:30:47.036Z,17.37
2018-10-11T13:33:15.797Z,16.30
2018-10-11T13:35:43.919Z,17.13
2018-10-11T13:38:12.841Z,16.43
2018-10-11T13:40:41.040Z,17.15
2018-10-11T13:43:09.162Z,17.13
